Terminal Aerodrome Forecast
Issued by NWS

Home | Current Version | Previous Version | Text Only | Print | Product List | Glossary On
Versions: 1 2 3 4 5 6 7 8 9 10 11 12 13 14 15 16 17 18 19 20 21 22 23 24 25 26 27 28 29 30 31 32 33 34 35
000
FTUS45 KBOU 311720
TAFBJC
TAF
KBJC 311720Z 3118/0118 14010KT P6SM SCT080 SCT120
     FM311900 16010KT P6SM VCTS SCT080CB BKN120
      TEMPO 3120/3122 16012G20KT 5SM -TSRA SCT060CB BKN090
     FM010400 24007KT P6SM FEW090 SCT120
     FM011200 VRB06KT P6SM FEW180
     FM011600 08008KT P6SM FEW150 SCT220=

USA.gov is the U.S. government's official web portal to all federal, state and local government web resources and services.